Time;durP1;ratioP1;P1;durP2;ratioP2;P2;SDS_P1;SDS_P2;PMS_P1;PMS_P2;Temp;Humidity;BMP_temperature;BMP_pressure;BME280_temperature;BME280_humidity;BME280_pressure;Samples;Min_cycle;Max_cycle;Signal;HPM_P1;HPM_P2
2022/04/18 00:06:16;;;;;;;2.60;0.77;;;;;;;;;;20877433;28;20747;-82
2022/04/18 00:16:18;;;;;;;2.07;0.90;;;;;;;;;;20879479;28;20299;-82
2022/04/18 00:26:20;;;;;;;1.10;0.80;;;;;;;;;;20881660;28;20198;-82
2022/04/18 00:36:22;;;;;;;0.83;0.50;;;;;;;;;;20881554;28;20221;-83
2022/04/18 00:46:23;;;;;;;0.70;0.40;;;;;;;;;;20896747;28;20241;-82
2022/04/18 00:56:25;;;;;;;2.10;0.70;;;;;;;;;;20872112;28;20637;-82
2022/04/18 01:06:27;;;;;;;2.83;0.50;;;;;;;;;;20874195;28;20206;-81
2022/04/18 01:16:29;;;;;;;1.33;0.53;;;;;;;;;;20884193;28;20218;-82
2022/04/18 01:37:17;;;;;;;1.27;0.67;;;;;;;;;;20909268;28;20260;-82
2022/04/18 01:47:19;;;;;;;0.83;0.50;;;;;;;;;;20902712;28;20225;-82
2022/04/18 01:57:21;;;;;;;0.80;0.50;;;;;;;;;;20945822;28;20241;-82
2022/04/18 02:07:25;;;;;;;1.13;0.67;;;;;;;;;;20894629;28;20214;-82
2022/04/18 02:17:28;;;;;;;1.20;0.60;;;;;;;;;;20863324;28;20570;-82
2022/04/18 02:27:30;;;;;;;0.60;0.33;;;;;;;;;;20862272;28;20280;-83
2022/04/18 02:37:32;;;;;;;0.83;0.70;;;;;;;;;;20861005;28;20252;-83
2022/04/18 02:47:34;;;;;;;1.07;0.50;;;;;;;;;;20870635;28;20226;-83
2022/04/18 02:57:36;;;;;;;0.40;0.40;;;;;;;;;;20879125;28;20270;-83
2022/04/18 03:07:38;;;;;;;1.63;0.40;;;10.80;99.90;;;;;;20864930;28;20267;-83
2022/04/18 03:17:41;;;;;;;0.77;0.47;;;;;;;;;;20865447;28;20217;-83
2022/04/18 03:27:43;;;;;;;0.87;0.40;;;;;;;;;;20880093;28;20283;-82
2022/04/18 03:48:07;;;;;;;0.67;0.40;;;;;;;;;;20876593;28;20588;-84
2022/04/18 03:58:09;;;;;;;1.27;0.47;;;;;;;;;;20791229;28;20711;-83
2022/04/18 04:08:11;;;;;;;0.67;0.40;;;;;;;;;;20805740;28;20556;-83
2022/04/18 04:18:13;;;;;;;1.10;0.40;;;;;;;;;;20806108;28;20288;-84
2022/04/18 04:28:15;;;;;;;1.17;0.50;;;;;;;;;;20821349;28;20219;-83
2022/04/18 04:38:18;;;;;;;3.07;0.87;;;;;;;;;;20788450;28;20313;-82
2022/04/18 04:48:25;;;;;;;0.50;0.33;;;;;;;;;;20791144;28;20273;-83
2022/04/18 04:58:31;;;;;;;0.37;0.30;;;;;;;;;;20804515;28;20586;-82
2022/04/18 05:08:37;;;;;;;6.30;0.40;;;;;;;;;;20802481;28;20211;-80
2022/04/18 05:18:41;;;;;;;2.87;0.60;;;;;;;;;;20822407;28;20292;-81
2022/04/18 05:28:45;;;;;;;1.37;0.37;;;;;;;;;;20820206;28;20584;-83
2022/04/18 05:38:48;;;;;;;3.57;0.77;;;;;;;;;;20859757;28;20226;-85
2022/04/18 05:48:56;;;;;;;1.43;0.60;;;;;;;;;;20866027;28;20237;-82
2022/04/18 05:58:58;;;;;;;0.67;0.40;;;;;;;;;;20863107;28;20300;-83
2022/04/18 06:09:20;;;;;;;0.43;0.30;;;;;;;;;;20910224;28;20214;-82
2022/04/18 06:19:22;;;;;;;5.73;0.70;;;;;;;;;;20873418;28;20557;-82
2022/04/18 06:29:25;;;;;;;1.60;0.77;;;;;;;;;;20838834;28;20219;-82
2022/04/18 06:39:27;;;;;;;1.70;0.90;;;;;;;;;;20810564;28;20226;-82
2022/04/18 06:49:47;;;;;;;1.00;0.60;;;12.20;99.90;;;;;;20877345;28;20225;-82
2022/04/18 07:00:24;;;;;;;1.77;0.50;;;;;;;;;;20913950;28;20233;-83
2022/04/18 07:10:26;;;;;;;1.03;0.60;;;;;;;;;;20975093;28;20217;-82
2022/04/18 07:20:29;;;;;;;1.40;0.70;;;;;;;;;;20965939;28;20232;-83
2022/04/18 07:30:31;;;;;;;4.23;1.10;;;;;;;;;;20973906;28;20300;-82
2022/04/18 07:40:35;;;;;;;1.67;0.73;;;;;;;;;;20989642;28;20233;-82
2022/04/18 08:01:05;;;;;;;2.30;0.90;;;;;;;;;;20821128;28;20226;-79
2022/04/18 08:11:17;;;;;;;2.97;0.90;;;;;;;;;;20877052;28;20226;-80
2022/04/18 08:21:22;;;;;;;1.77;0.90;;;;;;;;;;20882344;28;20225;-79
2022/04/18 08:31:24;;;;;;;3.13;1.40;;;14.90;89.40;;;;;;20852048;28;20744;-79
2022/04/18 08:41:38;;;;;;;1.40;0.83;;;;;;;;;;20900219;28;20779;-78
2022/04/18 09:02:03;;;;;;;1.93;0.90;;;;;;;;;;20882346;28;20229;-79
2022/04/18 09:12:20;;;;;;;4.20;0.90;;;;;;;;;;20884196;28;20594;-79
2022/04/18 09:22:48;;;;;;;1.53;1.10;;;;;;;;;;20830800;28;20235;-80
2022/04/18 09:33:03;;;;;;;2.13;1.23;;;16.40;92.50;;;;;;20830839;28;20218;-79
2022/04/18 09:43:24;;;;;;;3.37;1.50;;;;;;;;;;20875423;28;20252;-79
2022/04/18 09:53:28;;;;;;;1.70;1.00;;;;;;;;;;20900697;28;20642;-79
2022/04/18 10:03:30;;;;;;;1.83;1.10;;;;;;;;;;20848129;28;20379;-78
2022/04/18 10:13:34;;;;;;;1.70;0.90;;;;;;;;;;20901868;28;20229;-79
2022/04/18 10:23:54;;;;;;;1.80;1.00;;;;;;;;;;20910346;28;20209;-79
2022/04/18 10:33:57;;;;;;;1.17;0.83;;;;;;;;;;20888993;28;20230;-79
2022/04/18 10:44:07;;;;;;;0.97;0.50;;;17.80;85.40;;;;;;20905364;28;20303;-79
2022/04/18 10:54:17;;;;;;;1.63;0.93;;;18.60;87.30;;;;;;20899889;28;20243;-79
2022/04/18 11:04:24;;;;;;;1.97;1.00;;;18.70;85.50;;;;;;20884777;28;20275;-80
2022/04/18 11:14:31;;;;;;;3.37;1.50;;;19.00;83.30;;;;;;20900311;28;20722;-79
2022/04/18 11:24:36;;;;;;;2.03;0.97;;;;;;;;;;20845662;28;20275;-82
2022/04/18 11:34:37;;;;;;;1.40;0.70;;;;;;;;;;20898361;28;20267;-79
2022/04/18 11:44:40;;;;;;;1.13;0.70;;;;;;;;;;20878475;28;20237;-79
2022/04/18 11:55:03;;;;;;;0.63;0.50;;;19.30;80.90;;;;;;20878928;28;20234;-80
2022/04/18 12:15:41;;;;;;;0.90;0.60;;;19.90;82.40;;;;;;20877775;28;20222;-79
2022/04/18 12:25:48;;;;;;;1.40;0.73;;;19.70;81.70;;;;;;20894049;28;20618;-79
2022/04/18 12:35:52;;;;;;;1.03;0.60;;;20.50;82.30;;;;;;20926220;28;20267;-78
2022/04/18 12:46:07;;;;;;;1.40;0.60;;;20.30;81.10;;;;;;20899376;28;20561;-79
2022/04/18 12:56:10;;;;;;;1.10;0.80;;;;;;;;;;20900083;28;20257;-79
2022/04/18 13:06:12;;;;;;;1.27;0.60;;;;;;;;;;20899188;28;20218;-78
2022/04/18 13:16:20;;;;;;;1.27;0.80;;;;;;;;;;20916137;28;20238;-79
2022/04/18 13:26:23;;;;;;;1.63;0.83;;;;;;;;;;20897710;28;20199;-79
2022/04/18 13:36:30;;;;;;;2.33;0.53;;;;;;;;;;20792954;28;20710;-78
2022/04/18 13:46:33;;;;;;;1.13;0.67;;;;;;;;;;20835254;28;20243;-80
2022/04/18 13:56:34;;;;;;;0.80;0.70;;;;;;;;;;20872513;28;20663;-78
2022/04/18 14:06:37;;;;;;;0.70;0.63;;;;;;;;;;20905459;28;20219;-78
2022/04/18 14:26:59;;;;;;;1.13;0.57;;;;;;;;;;20891851;28;20288;-78
2022/04/18 14:37:01;;;;;;;1.90;0.87;;;;;;;;;;20809379;28;20280;-79
2022/04/18 14:47:03;;;;;;;2.57;0.60;;;;;;;;;;20884224;28;20237;-79
2022/04/18 14:57:05;;;;;;;0.63;0.50;;;;;;;;;;20902735;28;20231;-78
2022/04/18 15:07:07;;;;;;;1.13;0.50;;;;;;;;;;20871140;28;20235;-78
2022/04/18 15:17:09;;;;;;;1.03;0.50;;;;;;;;;;20895110;28;20277;-79
2022/04/18 15:27:10;;;;;;;0.97;0.53;;;;;;;;;;20962237;28;20221;-80
2022/04/18 15:37:13;;;;;;;1.10;0.60;;;;;;;;;;20973382;28;20251;-79
2022/04/18 15:47:15;;;;;;;0.90;0.60;;;;;;;;;;20968539;28;20221;-78
2022/04/18 15:57:17;;;;;;;3.77;0.83;;;;;;;;;;21003539;28;20215;-81
2022/04/18 16:07:18;;;;;;;0.40;0.40;;;;;;;;;;20947752;28;20971;-80
2022/04/18 16:17:21;;;;;;;0.90;0.50;;;;;;;;;;20838151;28;20617;-79
2022/04/18 16:27:23;;;;;;;1.60;1.00;;;;;;;;;;20842249;28;20268;-79
2022/04/18 16:37:25;;;;;;;1.53;0.70;;;;;;;;;;20918147;28;20269;-79
2022/04/18 16:47:26;;;;;;;0.83;0.40;;;;;;;;;;20898673;28;20565;-80
2022/04/18 16:57:28;;;;;;;0.90;0.40;;;;;;;;;;20909839;28;20289;-78
2022/04/18 17:07:34;;;;;;;1.47;0.60;;;20.20;81.60;;;;;;20823463;28;20685;-78
2022/04/18 17:17:38;;;;;;;1.83;0.77;;;;;;;;;;20866387;28;20224;-81
2022/04/18 17:27:43;;;;;;;0.60;0.50;;;;;;;;;;20869174;28;20211;-79
2022/04/18 17:37:44;;;;;;;3.57;2.60;;;;;;;;;;20911031;28;20239;-79
2022/04/18 17:47:50;;;;;;;1.60;0.50;;;;;;;;;;20900232;28;20226;-79
2022/04/18 17:57:59;;;;;;;0.40;0.40;;;19.40;80.20;;;;;;20892563;28;20220;-78
2022/04/18 18:08:01;;;;;;;0.90;0.40;;;;;;;;;;20905331;28;20221;-79
2022/04/18 18:18:05;;;;;;;1.77;1.23;;;;;;;;;;20892772;28;20287;-79
2022/04/18 18:28:07;;;;;;;3.40;2.50;;;;;;;;;;20922813;28;20227;-80
2022/04/18 18:38:10;;;;;;;6.80;5.27;;;18.40;89.10;;;;;;20953190;28;20238;-80
2022/04/18 18:48:13;;;;;;;8.20;3.83;;;;;;;;;;20907288;28;20260;-81
2022/04/18 18:58:16;;;;;;;0.87;0.50;;;;;;;;;;20906343;28;20248;-80
2022/04/18 19:08:18;;;;;;;0.80;0.60;;;;;;;;;;20906000;28;20276;-80
2022/04/18 19:28:41;;;;;;;3.33;1.03;;;;;;;;;;20906241;28;20929;-79
2022/04/18 19:38:43;;;;;;;2.30;0.90;;;;;;;;;;20917733;28;20229;-80
2022/04/18 19:48:45;;;;;;;2.70;1.70;;;;;;;;;;20881719;28;20233;-79
2022/04/18 19:58:48;;;;;;;1.63;0.73;;;;;;;;;;20895667;28;20233;-80
2022/04/18 20:08:51;;;;;;;2.00;0.70;;;;;;;;;;20902077;28;20218;-79
2022/04/18 20:18:53;;;;;;;1.23;0.80;;;;;;;;;;20905039;28;20280;-81
2022/04/18 20:28:57;;;;;;;2.30;0.70;;;;;;;;;;20878499;28;20613;-80
2022/04/18 20:38:59;;;;;;;0.43;0.40;;;;;;;;;;20916969;28;20222;-80
2022/04/18 20:49:00;;;;;;;1.07;0.60;;;;;;;;;;20899207;28;20225;-80
2022/04/18 20:59:06;;;;;;;1.03;0.70;;;16.40;96.50;;;;;;20900076;28;20242;-83
2022/04/18 21:09:07;;;;;;;0.87;0.60;;;;;;;;;;20900114;28;20198;-80
2022/04/18 21:19:09;;;;;;;1.80;0.80;;;;;;;;;;20915444;28;20226;-80
2022/04/18 21:29:11;;;;;;;3.27;0.63;;;;;;;;;;20897493;28;20218;-80
2022/04/18 21:39:13;;;;;;;1.17;0.77;;;15.60;93.90;;;;;;20958857;28;20332;-81
2022/04/18 21:49:15;;;;;;;1.70;0.53;;;;;;;;;;20930201;28;20726;-79
2022/04/18 21:59:18;;;;;;;1.20;0.70;;;;;;;;;;20894997;28;20230;-81
2022/04/18 22:09:20;;;;;;;0.97;0.60;;;;;;;;;;20878873;28;20737;-80
2022/04/18 22:29:42;;;;;;;1.07;0.63;;;;;;;;;;20896033;28;20739;-79
2022/04/18 22:39:44;;;;;;;1.23;0.83;;;;;;;;;;20883218;28;20264;-81
2022/04/18 22:49:49;;;;;;;1.03;0.53;;;;;;;;;;20908459;28;20222;-83
2022/04/18 22:59:50;;;;;;;1.10;0.80;;;;;;;;;;20907742;28;20287;-80
2022/04/18 23:09:52;;;;;;;1.13;0.60;;;;;;;;;;20890948;28;20221;-79
2022/04/18 23:19:54;;;;;;;1.90;0.83;;;;;;;;;;20908396;28;20234;-80
2022/04/18 23:29:55;;;;;;;1.50;0.73;;;;;;;;;;20906863;28;20222;-80
